Wednesday, April 25, 2018, 8:20 AM EDT
Back to Local

KSBY, Salisbury-wicomico Cty Reg

Location: Salisbury, MD, United States Lat: 38.333
Local Time: 8:20 AM EDT (12:20 GMT) Lon: -75.5
Time Zone: US/Eastern Elev: 52 ft

Show me the last for .
Show Decoded

2018-04-25 08:01 METAR KSBY 251201Z 10004KT 3/4SM BR OVC002 14/14 A2976 RMK AO2 T01440144 =
2018-04-25 07:54 METAR KSBY 251154Z 11005KT 1SM BR OVC002 14/14 A2976 RMK AO2 SLP080 60000 70012
                 T01440144 10150 20144 56014 =
2018-04-25 07:35 METAR KSBY 251135Z 13007KT 1 1/4SM BR OVC003 14/14 A2977 RMK AO2 T01440144 =
2018-04-25 07:26 METAR KSBY 251126Z 12005KT 2SM BR OVC003 14/14 A2977 RMK AO2 T01440144 =
2018-04-25 07:15 METAR KSBY 251115Z 06005KT 4SM BR OVC004 14/14 A2976 RMK AO2 T01440144 =
2018-04-25 06:54 METAR KSBY 251054Z 06005KT 7SM OVC005 14/14 A2977 RMK AO2 SLP081 T01440144 =
2018-04-25 05:54 METAR KSBY 250954Z AUTO 17004KT 10SM OVC006 15/14 A2978 RMK AO2 RAE19 CIG
                 005V010 SLP086 P0000 T01500144 =
2018-04-25 05:16 METAR KSBY 250916Z AUTO 10012KT 10SM -RA BKN005 OVC110 14/14 A2978 RMK AO2 P0000
                 T01440144 =
2018-04-25 04:54 METAR KSBY 250854Z AUTO 11012KT 9SM -RA OVC004 14/14 A2980 RMK AO2 RAB52 CIG
                 003V007 SLP093 P0000 60000 T01440144 58021 =
2018-04-25 03:54 METAR KSBY 250754Z AUTO 11011KT 7SM OVC004 14/14 A2984 RMK AO2 SLP106 T01440144
                 =
2018-04-25 02:54 METAR KSBY 250654Z AUTO 12011KT 6SM BR OVC004 14/14 A2986 RMK AO2 SLP114
                 T01440144 =
2018-04-25 02:50 METAR KSBY 250650Z AUTO 11010KT 6SM BR OVC004 14/14 A2986 RMK AO2 =
2018-04-25 01:54 METAR KSBY 250554Z AUTO 12011KT 7SM OVC005 14/14 A2990 RMK AO2 SLP126 60009
                 T01440139 10144 20128 58030 =
2018-04-25 00:54 METAR KSBY 250454Z AUTO 13008KT 8SM OVC005 14/14 A2994 RMK AO2 RAE11 SLP139
                 P0000 T01440139 401780067 =
2018-04-24 23:54 METAR KSBY 250354Z AUTO 12011G18KT 4SM -RA BR OVC005 14/14 A2996 RMK AO2 SLP148
                 P0001 T01390139 =
2018-04-24 23:10 METAR KSBY 250310Z AUTO 12013G20KT 3SM -RA BR OVC005 14/13 A2998 RMK AO2 P0000
                 T01390133 =
2018-04-24 22:54 METAR KSBY 250254Z AUTO 12015G21KT 2 1/2SM -RA BR OVC007 13/13 A2999 RMK AO2 CIG
                 005V009 SLP157 P0003 60008 T01330133 58019 =
2018-04-24 22:25 METAR KSBY 250225Z 12014KT 3SM -RA BR OVC007 14/13 A3001 RMK AO2 P0001 T01390133
                 =
2018-04-24 21:54 METAR KSBY 250154Z 11014KT 2 1/2SM -RA BR OVC006 13/13 A3002 RMK AO2 CIG 004V010
                 SLP169 P0004 T01330128 =
2018-04-24 21:35 METAR KSBY 250135Z 11012KT 2 1/2SM -RA BR OVC008 13/13 A3003 RMK AO2 P0002
                 T01330128 =
2018-04-24 21:28 METAR KSBY 250128Z 11012KT 3SM -RA BR OVC008 13/13 A3003 RMK AO2 P0002 T01330128
                 =
2018-04-24 21:11 METAR KSBY 250111Z 11013KT 2 1/2SM -RA BR BKN008 BKN019 OVC027 13/13 A3004 RMK
                 AO2 P0001 T01330128 =
2018-04-24 20:54 METAR KSBY 250054Z 10012KT 3SM -RA BR SCT008 BKN022 OVC043 13/13 A3004 RMK AO2
                 SLP176 P0001 T01280128 =
2018-04-24 20:51 METAR KSBY 250051Z 11012KT 3SM -RA BR SCT007 BKN022 OVC043 13/13 A3004 RMK AO2
                 P0001 =
2018-04-24 20:30 METAR KSBY 250030Z 10012KT 6SM -RA BR BKN009 BKN019 OVC043 13/12 A3005 RMK AO2
                 P0001 T01280122 =
2018-04-24 20:21 METAR KSBY 250021Z 10011KT 4SM -RA BR FEW009 BKN035 OVC043 13/12 A3005 RMK AO2
                 P0001 T01280122 =
2018-04-24 19:54 METAR KSBY 242354Z 10012KT 5SM -RA BR FEW037 OVC050 13/12 A3005 RMK AO2 RAB00
                 SLP178 P0003 60003 T01280117 10178 20128 56020 =
2018-04-24 18:54 METAR KSBY 242254Z 12013G20KT 10SM BKN070 OVC100 14/11 A3007 RMK AO2 RAE05
                 SLP184 P0000 T01390111 =
2018-04-24 17:54 METAR KSBY 242154Z 09009KT 10SM -RA SCT029 BKN049 OVC090 13/11 A3008 RMK AO2
                 RAE2059B21 SLP189 P0000 T01330111 =
2018-04-24 16:54 METAR KSBY 242054Z 10010KT 10SM -RA SCT040 BKN050 OVC090 14/11 A3011 RMK AO2
                 RAB20 SLP197 P0000 60000 T01440111 56034 =
2018-04-24 15:54 METAR KSBY 241954Z 10013G18KT 10SM FEW050 BKN100 17/09 A3014 RMK AO2 SLP207
                 T01670094 =
2018-04-24 14:54 METAR KSBY 241854Z 12016G27KT 10SM CLR 17/09 A3018 RMK AO2 PK WND 12027/1852
                 SLP220 T01720094 =
2018-04-24 13:54 METAR KSBY 241754Z 12014G20KT 10SM CLR 17/09 A3021 RMK AO2 SLP232 T01720094
                 10172 20128 56025 =
2018-04-24 12:54 METAR KSBY 241654Z 10015KT 10SM CLR 17/09 A3022 RMK AO2 SLP237 T01670089 =
2018-04-24 11:54 METAR KSBY 241554Z 12014G20KT 10SM CLR 17/09 A3025 RMK AO2 SLP246 T01670089 =
2018-04-24 10:54 METAR KSBY 241454Z 11012G21KT 10SM CLR 17/09 A3028 RMK AO2 SLP256 T01670089
                 56008 =
2018-04-24 09:54 METAR KSBY 241354Z 12014KT 10SM CLR 16/09 A3028 RMK AO2 SLP257 T01610089 =
2018-04-24 08:54 METAR KSBY 241254Z 10012KT 10SM CLR 14/09 A3029 RMK AO2 SLP260 T01440089 =

Support USWX by starting your Amazon purchase here.